createdAt,value
2019-04-23T00:00:16.585Z,3.60
2019-04-23T00:02:53.541Z,3.67
2019-04-23T00:05:35.345Z,3.77
2019-04-23T00:07:56.196Z,3.67
2019-04-23T00:10:29.799Z,4.00
2019-04-23T00:13:14.427Z,3.70
2019-04-23T00:15:40.970Z,3.92
2019-04-23T00:18:09.731Z,3.65
2019-04-23T00:20:34.844Z,4.15
2019-04-23T00:26:00.359Z,4.20
2019-04-23T00:28:21.216Z,3.37
2019-04-23T00:31:12.448Z,3.95
2019-04-23T00:33:26.988Z,4.10
2019-04-23T00:35:50.153Z,3.70
2019-04-23T00:40:51.287Z,4.12
2019-04-23T00:43:34.258Z,4.12
2019-04-23T00:48:29.388Z,4.17
2019-04-23T00:50:55.890Z,4.37
2019-04-23T00:53:22.080Z,3.80
2019-04-23T00:56:09.732Z,4.10
2019-04-23T00:58:31.914Z,4.28
2019-04-23T01:00:53.972Z,3.92
2019-04-23T01:03:21.815Z,4.25
2019-04-23T01:05:52.701Z,4.35
2019-04-23T01:08:26.374Z,3.87
2019-04-23T01:11:20.376Z,4.20
2019-04-23T01:13:36.311Z,4.17
2019-04-23T01:16:04.470Z,4.17
2019-04-23T01:20:54.717Z,4.58
2019-04-23T01:23:34.946Z,4.25
2019-04-23T01:26:08.159Z,4.25
2019-04-23T01:28:55.683Z,3.85
2019-04-23T01:31:24.405Z,4.37
2019-04-23T01:33:51.474Z,4.37
2019-04-23T01:36:29.713Z,5.03
2019-04-23T01:38:57.162Z,4.47
2019-04-23T01:43:53.559Z,4.20
2019-04-23T01:46:23.485Z,4.90
2019-04-23T01:48:55.166Z,4.05
2019-04-23T01:51:27.863Z,4.72
2019-04-23T01:53:51.526Z,4.62
2019-04-23T01:56:26.980Z,4.25
2019-04-23T01:59:00.283Z,4.53
2019-04-23T02:01:29.531Z,4.42
2019-04-23T02:04:03.782Z,4.67
2019-04-23T02:06:29.288Z,4.25
2019-04-23T02:08:59.856Z,5.03
2019-04-23T02:11:25.311Z,5.37
2019-04-23T02:13:55.672Z,4.80
2019-04-23T02:16:30.654Z,4.85
2019-04-23T02:18:56.826Z,4.80
2019-04-23T02:21:35.075Z,4.97
2019-04-23T02:24:24.694Z,4.35
2019-04-23T02:26:36.858Z,5.05
2019-04-23T02:29:28.740Z,4.90
2019-04-23T02:34:40.985Z,5.55
2019-04-23T02:36:57.125Z,5.53
2019-04-23T02:39:17.323Z,5.60
2019-04-23T02:41:54.455Z,5.92
2019-04-23T02:51:50.998Z,6.47
2019-04-23T02:56:50.974Z,8.10
2019-04-23T03:01:57.562Z,10.18
2019-04-23T03:04:28.772Z,9.60
2019-04-23T03:06:58.459Z,9.55
2019-04-23T03:12:06.951Z,11.10
2019-04-23T03:14:33.101Z,11.95
2019-04-23T03:22:31.862Z,9.60
2019-04-23T03:27:28.749Z,8.43
2019-04-23T03:33:40.530Z,9.18
2019-04-23T03:47:37.439Z,7.35
2019-04-23T03:52:39.156Z,6.90
2019-04-23T03:55:10.277Z,6.75
2019-04-23T04:00:22.369Z,7.22
2019-04-23T04:02:54.855Z,6.47
2019-04-23T04:05:20.563Z,7.15
2019-04-23T04:10:05.415Z,6.15
2019-04-23T04:15:18.296Z,6.50
2019-04-23T04:20:15.242Z,6.30
2019-04-23T04:25:21.650Z,5.78
2019-04-23T04:27:54.159Z,6.35
2019-04-23T04:33:00.474Z,5.97
2019-04-23T04:42:58.976Z,6.80
2019-04-23T04:45:42.139Z,6.15
2019-04-23T04:50:34.175Z,6.10
2019-04-23T04:55:21.533Z,6.03
2019-04-23T04:57:52.208Z,5.97
2019-04-23T05:00:39.887Z,6.03
2019-04-23T05:07:47.407Z,5.87
2019-04-23T05:10:29.692Z,6.28
2019-04-23T05:12:56.395Z,5.95
2019-04-23T05:15:18.855Z,6.30
2019-04-23T05:18:19.577Z,6.10
2019-04-23T05:20:28.579Z,6.20
2019-04-23T05:23:11.298Z,6.25
2019-04-23T05:25:25.460Z,6.03
2019-04-23T05:28:02.853Z,6.33
2019-04-23T05:30:32.971Z,6.25
2019-04-23T05:32:59.145Z,6.22
2019-04-23T05:40:37.480Z,6.12
2019-04-23T05:42:58.973Z,6.15
2019-04-23T05:45:31.534Z,6.33
2019-04-23T05:48:06.798Z,5.87
2019-04-23T05:50:44.909Z,5.75
2019-04-23T05:52:59.801Z,5.72
2019-04-23T05:55:27.366Z,5.95
2019-04-23T05:58:00.617Z,5.55
2019-04-23T06:00:39.800Z,6.00
2019-04-23T06:03:14.761Z,5.45
2019-04-23T06:05:44.407Z,6.00
2019-04-23T06:08:11.988Z,6.35
2019-04-23T06:10:49.736Z,7.25
2019-04-23T06:13:16.782Z,5.92
2019-04-23T06:15:44.015Z,5.92
2019-04-23T06:18:20.026Z,6.53
2019-04-23T06:20:51.765Z,5.80
2019-04-23T06:23:25.013Z,5.53
2019-04-23T06:26:05.371Z,6.00
2019-04-23T06:28:24.147Z,5.95
2019-04-23T06:30:54.370Z,6.95
2019-04-23T06:35:53.404Z,6.83
2019-04-23T06:40:59.557Z,5.67
2019-04-23T06:43:34.960Z,6.30
2019-04-23T06:46:09.960Z,5.95
2019-04-23T06:48:35.144Z,5.72
2019-04-23T06:53:29.192Z,5.97
2019-04-23T08:42:33.433Z,5.78
2019-04-23T08:47:23.227Z,5.72
2019-04-23T08:49:50.713Z,5.58
2019-04-23T08:52:27.503Z,5.58
2019-04-23T08:55:12.374Z,5.00
2019-04-23T08:57:26.956Z,5.67
2019-04-23T09:02:40.414Z,4.70
2019-04-23T09:07:57.130Z,5.65
2019-04-23T09:10:11.323Z,4.80
2019-04-23T09:12:45.937Z,5.45
2019-04-23T09:15:16.519Z,5.33
2019-04-23T09:17:51.368Z,5.30
2019-04-23T09:20:21.883Z,5.80
2019-04-23T09:25:23.113Z,5.60
2019-04-23T09:27:48.662Z,5.62
2019-04-23T09:30:16.353Z,6.05
2019-04-23T09:32:49.193Z,5.33
2019-04-23T09:35:36.026Z,4.90
2019-04-23T09:38:25.183Z,4.78
2019-04-23T09:41:16.814Z,5.22
2019-04-23T09:44:02.808Z,5.10
2019-04-23T09:46:45.185Z,5.45
2019-04-23T09:49:20.868Z,4.85
2019-04-23T09:51:51.562Z,5.58
2019-04-23T09:54:23.727Z,5.50
2019-04-23T10:01:45.245Z,5.47
2019-04-23T10:04:08.756Z,5.45
2019-04-23T10:06:32.089Z,4.80
2019-04-23T10:09:01.722Z,5.33
2019-04-23T10:11:28.383Z,5.30
2019-04-23T10:13:58.605Z,5.12
2019-04-23T10:20:22.514Z,5.45
2019-04-23T10:22:52.582Z,5.80
2019-04-23T10:25:30.163Z,4.80
2019-04-23T10:28:20.521Z,4.95
2019-04-23T10:30:38.554Z,5.17
2019-04-23T10:33:07.525Z,5.25
2019-04-23T10:35:46.040Z,5.05
2019-04-23T10:38:10.889Z,4.70
2019-04-23T10:40:40.567Z,5.10
2019-04-23T10:43:09.148Z,4.75
2019-04-23T10:46:08.063Z,4.30
2019-04-23T10:49:01.950Z,5.10
2019-04-23T10:51:38.588Z,4.78
2019-04-23T10:54:23.969Z,4.42
2019-04-23T10:56:41.079Z,4.55
2019-04-23T10:59:04.958Z,4.67
2019-04-23T11:01:41.624Z,4.42
2019-04-23T11:04:33.828Z,5.00
2019-04-23T11:06:45.055Z,4.72
2019-04-23T11:09:34.794Z,4.65
2019-04-23T11:11:53.678Z,4.62
2019-04-23T11:14:25.854Z,4.05
2019-04-23T11:16:58.202Z,4.40
2019-04-23T11:19:25.307Z,3.72
2019-04-23T11:48:39.529Z,3.70
2019-04-23T11:51:23.885Z,3.60
2019-04-23T11:54:30.915Z,3.85
2019-04-23T16:02:59.257Z,2.77
2019-04-23T16:05:27.966Z,2.95
2019-04-23T16:08:26.401Z,3.72
2019-04-23T16:11:06.906Z,3.20
2019-04-23T16:13:32.482Z,3.65
2019-04-23T16:15:59.184Z,3.20
2019-04-23T16:18:45.758Z,3.52
2019-04-23T16:21:27.289Z,4.03
2019-04-23T16:23:43.892Z,3.45
2019-04-23T16:26:17.622Z,3.35
2019-04-23T16:29:08.309Z,2.92
2019-04-23T16:31:23.589Z,3.22
2019-04-23T16:33:58.860Z,3.45
2019-04-23T16:38:56.532Z,3.35
2019-04-23T16:41:27.713Z,2.98
2019-04-23T16:43:57.542Z,3.60
2019-04-23T16:49:15.379Z,3.12
2019-04-23T16:51:32.205Z,3.15
2019-04-23T16:53:54.382Z,2.80
2019-04-23T16:56:56.080Z,3.52
2019-04-23T16:59:07.205Z,3.33
2019-04-23T17:01:20.937Z,3.20
2019-04-23T17:03:56.624Z,3.90
2019-04-23T17:06:23.560Z,3.77
2019-04-23T17:08:57.696Z,3.27
2019-04-23T17:11:26.185Z,3.70
2019-04-23T17:14:01.429Z,3.55
2019-04-23T17:16:28.456Z,4.08
2019-04-23T17:19:05.372Z,4.20
2019-04-23T17:21:31.338Z,3.70
2019-04-23T17:26:28.724Z,4.30
2019-04-23T17:29:09.873Z,3.70
2019-04-23T17:31:35.464Z,4.00
2019-04-23T17:36:34.818Z,4.05
2019-04-23T17:42:18.167Z,3.80
2019-04-23T17:45:03.604Z,3.90
2019-04-23T17:47:06.062Z,4.33
2019-04-23T17:49:35.172Z,3.97
2019-04-23T17:52:14.687Z,4.22
2019-04-23T17:57:10.676Z,3.95
2019-04-23T18:09:29.307Z,4.12
2019-04-23T18:14:16.344Z,4.20
2019-04-23T18:16:55.597Z,5.62
2019-04-23T18:19:39.502Z,4.55
2019-04-23T18:22:20.277Z,4.50
2019-04-23T18:25:00.855Z,4.12
2019-04-23T18:27:23.498Z,4.45
2019-04-23T18:30:00.981Z,4.23
2019-04-23T18:33:18.327Z,4.13
2019-04-23T18:35:15.377Z,4.70
2019-04-23T18:37:35.983Z,3.95
2019-04-23T18:43:03.185Z,4.50
2019-04-23T18:45:20.710Z,3.90
2019-04-23T18:47:47.503Z,3.83
2019-04-23T18:50:17.977Z,3.72
2019-04-23T18:52:48.472Z,4.37
2019-04-23T18:55:18.803Z,3.70
2019-04-23T18:57:48.585Z,3.50
2019-04-23T19:00:36.750Z,3.77
2019-04-23T19:05:39.878Z,3.87
2019-04-23T19:08:27.691Z,3.42
2019-04-23T19:10:45.867Z,3.20
2019-04-23T19:13:18.883Z,3.58
2019-04-23T19:15:42.617Z,4.37
2019-04-23T19:18:23.973Z,3.62
2019-04-23T19:23:25.712Z,3.70
2019-04-23T19:25:44.841Z,3.62
2019-04-23T19:28:38.188Z,3.60
2019-04-23T19:31:07.354Z,3.75
2019-04-23T19:33:45.480Z,3.58
2019-04-23T19:38:35.203Z,3.85
2019-04-23T19:41:25.493Z,4.05
2019-04-23T19:43:53.111Z,3.65
2019-04-23T19:46:25.579Z,4.17
2019-04-23T19:48:48.208Z,4.90
2019-04-23T19:53:51.717Z,4.50
2019-04-23T19:58:46.436Z,3.98
2019-04-23T20:03:49.829Z,4.47
2019-04-23T20:06:27.307Z,4.30
2019-04-23T20:09:10.555Z,4.58
2019-04-23T20:11:30.229Z,4.20
2019-04-23T20:14:03.263Z,4.45
2019-04-23T20:16:31.374Z,4.35
2019-04-23T20:21:19.613Z,4.42
2019-04-23T20:24:03.967Z,4.33
2019-04-23T20:36:49.295Z,3.97
2019-04-23T20:39:38.513Z,4.62
2019-04-23T20:49:38.776Z,4.67
2019-04-23T20:54:44.656Z,4.42
2019-04-23T20:57:24.706Z,4.53
2019-04-23T21:02:47.662Z,4.78
2019-04-23T21:05:50.498Z,4.45
2019-04-23T21:07:31.268Z,4.00
2019-04-23T21:12:43.187Z,4.72
2019-04-23T21:15:05.314Z,4.05
2019-04-23T21:17:37.658Z,4.50
2019-04-23T21:22:36.908Z,4.12
2019-04-23T21:24:51.247Z,5.00
2019-04-23T21:27:55.358Z,5.62
2019-04-23T21:30:39.775Z,4.90
2019-04-23T21:37:53.758Z,5.00
2019-04-23T21:40:42.462Z,4.97
2019-04-23T21:45:27.944Z,5.10
2019-04-23T21:48:00.559Z,4.90
2019-04-23T21:50:25.797Z,4.40
2019-04-23T21:52:54.106Z,4.62
2019-04-23T21:55:36.476Z,5.05
2019-04-23T21:58:01.384Z,4.62
2019-04-23T22:00:25.834Z,4.55
2019-04-23T22:03:03.734Z,4.55
2019-04-23T22:10:28.137Z,4.70
2019-04-23T22:14:07.510Z,4.62
2019-04-23T22:15:34.902Z,4.58
2019-04-23T22:23:03.788Z,4.75
2019-04-23T22:25:34.111Z,4.65
2019-04-23T22:28:03.174Z,4.83
2019-04-23T22:30:30.391Z,4.95
2019-04-23T22:33:07.584Z,4.97
2019-04-23T22:35:30.198Z,4.50
2019-04-23T22:38:07.485Z,5.15
2019-04-23T22:40:27.813Z,4.53
2019-04-23T22:45:52.654Z,4.62
2019-04-23T22:53:00.405Z,5.15
2019-04-23T22:55:32.730Z,5.00
2019-04-23T22:58:05.408Z,5.30
2019-04-23T23:00:33.680Z,5.20
2019-04-23T23:03:21.133Z,5.12
2019-04-23T23:10:57.503Z,5.15
2019-04-23T23:13:35.789Z,5.17
2019-04-23T23:16:02.031Z,5.05
2019-04-23T23:18:25.593Z,4.70
2019-04-23T23:20:59.673Z,4.80
2019-04-23T23:23:30.083Z,4.85
2019-04-23T23:26:01.872Z,5.28
2019-04-23T23:28:37.716Z,5.00
2019-04-23T23:31:09.982Z,5.62
2019-04-23T23:33:36.268Z,5.45
2019-04-23T23:38:41.769Z,5.65
2019-04-23T23:43:31.643Z,5.28
2019-04-23T23:51:11.562Z,5.85
2019-04-23T23:53:40.587Z,5.47
2019-04-23T23:58:48.250Z,5.37
